Fortaleza, Brasil

01:38 PM BRT em 30 de Outubro de 2014 (GMT -0300)
Pinto Martins International | Change Station
CLOSE
Current Station
Aeroporto
Location: Fortaleza - Pinto Martins,
Altitude: 82 ft
Estações Meteorológicas Próximas

Elev 82 ft 3.78 °S, 38.53 °W | Updated 38 minutes ago

Scattered Clouds
Nuvens Dispersas
86 °F
Aparente 88 °F
N
20
Vento Variável Vento de ESE

Hoje
Máxima -- | Mínima -- °F
--% Possibilidade de Precip.
Ontem
Máxima -- | Mínima -- °F
Precip. -- pol
5:10 AM 5:24 PM
Quarto crescente, 45% visible
Pressão 29.86 pol
Visibilidade 6.2 milhas
Nuvens Nuvens Dispersas 2500 ft
Índice de Calor 88 °F
Ponto de Orvalho 66 °F
Humidade 51%
Chuva 0.00 pol
Altura de Neve Não disponível
UV 8 em vez de 12
Pólen Não disponível
Qualidade do Ar Não disponível
Flu Activity Não disponível
METAR SBFZ 301600Z 11017KT 9999 SCT025 30/19 Q1011

More Conditions Fewer Conditions

Pressão 29.86 pol
Visibilidade 6.2 milhas
Nuvens Nuvens Dispersas 2500 ft
Índice de Calor 88 °F
Ponto de Orvalho 66 °F
Humidade 51%
Chuva 0.00 pol
Altura de Neve Não disponível
UV 8 em vez de 12
Pólen Não disponível
Qualidade do Ar Não disponível
Flu Activity Não disponível
METAR SBFZ 301600Z 11017KT 9999 SCT025 30/19 Q1011

More Conditions Fewer Conditions

10-Day Weather Forecast

Almanac

Astronomia

Oct. 30, 2014 Nascer Pôr
Hora atual
Crepúsculo civil
Crepúsculo náutico
Crepúsculo astronómico
Lua
Comprimento da luz visível
Duração do Dia
Tomorrow will be .
, % of the Moon is Illuminated

Extremos de Hoje

Altitude na localidade Altura mais baixa na localidade

Community

WunderPhotos

Upload Photos

1,766,399 fotografias inseridas!

WunderBlogs® & News

Nearby

Qualidade do Ar

  Qualidade do Ar Índice da Q.A. Poluente
Not available.

Altura da Neve

Estação altura Altitude

Actividade Sísmisca

Cidade Distância Mag. Hora & Data
Mínima magnitude apresentada é 2.5.

Temperaturas das Águas Costeiras

Local Temperatura

Estações Meteorológicas Próximas